Time;durP1;ratioP1;P1;durP2;ratioP2;P2;SDS_P1;SDS_P2;PMS_P1;PMS_P2;Temp;Humidity;BMP_temperature;BMP_pressure;BME280_temperature;BME280_humidity;BME280_pressure;Samples;Min_cycle;Max_cycle;Signal;HPM_P1;HPM_P2
2022/08/26 00:01:17;;;;;;;8.27;3.33;;;;;;;27.68;100.00;101365.16;5079009;28;20043;-55
2022/08/26 00:03:43;;;;;;;6.33;2.67;;;;;;;27.22;100.00;101363.91;5080173;28;20055;-54
2022/08/26 00:17:30;;;;;;;6.43;2.50;;;;;;;27.23;100.00;101371.03;5072529;28;20110;-55
2022/08/26 00:19:56;;;;;;;11.02;2.70;;;;;;;27.31;100.00;101372.28;5080662;28;20036;-53
2022/08/26 00:22:21;;;;;;;5.45;2.65;;;;;;;27.14;100.00;101373.63;5076813;28;20036;-51
2022/08/26 00:24:47;;;;;;;9.73;2.83;;;;;;;27.08;100.00;101376.72;5078583;28;20036;-53
2022/08/26 00:27:12;;;;;;;6.82;2.65;;;;;;;27.09;100.00;101370.13;5076217;28;20154;-49
2022/08/26 00:29:38;;;;;;;7.32;2.72;;;;;;;27.20;100.00;101377.94;5082018;28;20109;-54
2022/08/26 00:32:05;;;;;;;8.80;2.70;;;;;;;27.22;100.00;101369.41;5079158;28;20039;-50
2022/08/26 00:41:53;;;;;;;11.07;2.77;;;;;;;26.95;100.00;101384.56;5074627;28;20044;-53
2022/08/26 00:44:19;;;;;;;7.32;2.65;;;;;;;26.81;100.00;101375.41;5074234;28;20037;-55
2022/08/26 00:46:49;;;;;;;9.43;2.97;;;;;;;26.95;100.00;101381.81;5069477;28;20036;-56
2022/08/26 00:49:39;;;;;;;6.60;2.53;;;;;;;26.79;100.00;101377.63;5078038;28;20059;-56
2022/08/26 00:52:13;;;;;;;5.80;2.47;;;;;;;27.01;100.00;101377.09;5073717;28;20033;-53
2022/08/26 00:54:45;;;;;;;7.43;2.27;;;;;;;26.43;100.00;101376.91;5077095;28;20041;-55
2022/08/26 00:57:16;;;;;;;8.20;3.23;;;;;;;26.15;100.00;101373.84;5076225;28;20021;-53
2022/08/26 00:59:45;;;;;;;8.70;2.97;;;;;;;26.63;100.00;101369.56;5079739;28;20036;-52
2022/08/26 01:02:12;;;;;;;7.93;2.83;;;;;;;26.66;100.00;101366.22;5076368;28;20025;-52
2022/08/26 01:04:38;;;;;;;10.70;2.20;;;;;;;26.86;100.00;101372.59;5077312;28;20045;-55
2022/08/26 01:07:05;;;;;;;9.03;2.97;;;;;;;26.95;100.00;101365.34;5077824;28;20025;-55
2022/08/26 01:09:31;;;;;;;11.30;5.60;;;;;;;26.51;100.00;101375.44;5080727;28;20056;-54
2022/08/26 01:12:01;;;;;;;11.83;2.93;;;;;;;26.62;100.00;101362.44;5081298;28;20029;-54
2022/08/26 01:14:32;;;;;;;7.57;2.60;;;;;;;26.29;100.00;101365.81;5075673;28;20029;-54
2022/08/26 01:17:03;;;;;;;9.83;3.03;;;;;;;26.30;100.00;101370.19;5072471;28;20147;-53
2022/08/26 01:19:47;;;;;;;10.83;2.83;;;;;;;26.57;100.00;101374.28;5076274;28;20036;-54
2022/08/26 01:22:15;;;;;;;8.37;3.13;;;;;;;26.65;100.00;101367.34;5072993;28;20033;-54
2022/08/26 01:24:41;;;;;;;6.03;2.40;;;;;;;26.60;100.00;101372.88;5072274;28;20041;-53
2022/08/26 01:27:12;;;;;;;9.73;2.60;;;;;;;26.63;100.00;101377.78;5077395;28;20037;-53
2022/08/26 01:29:41;;;;;;;11.57;3.67;;;;;;;27.07;100.00;101372.34;5072681;28;20057;-51
2022/08/26 01:32:10;;;;;;;9.57;2.70;;;;;;;27.20;100.00;101372.44;5074749;28;20024;-52
2022/08/26 01:34:38;;;;;;;9.40;2.50;;;;;;;27.24;100.00;101372.66;5076293;28;20040;-53
2022/08/26 01:37:08;;;;;;;9.13;3.00;;;;;;;26.75;100.00;101369.94;5078918;28;20066;-54
2022/08/26 01:39:35;;;;;;;10.47;2.50;;;;;;;26.93;100.00;101370.31;5077158;28;20033;-55
2022/08/26 01:42:04;;;;;;;10.83;2.83;;;;;;;26.99;100.00;101382.06;5078023;28;20053;-52
2022/08/26 01:44:35;;;;;;;10.23;2.73;;;;;;;26.77;100.00;101378.72;5076715;28;20055;-57
2022/08/26 01:47:01;;;;;;;19.20;3.20;;;;;;;26.72;100.00;101372.47;5077464;28;20125;-53
2022/08/26 01:49:28;;;;;;;8.00;2.53;;;;;;;26.84;100.00;101374.81;5078026;28;20044;-52
2022/08/26 01:51:55;;;;;;;5.77;2.10;;;;;;;26.69;100.00;101376.59;5079291;28;20040;-52
2022/08/26 01:54:22;;;;;;;9.33;2.13;;;;;;;26.79;100.00;101374.88;5080279;28;20043;-54
2022/08/26 01:56:48;;;;;;;13.03;2.87;;;;;;;26.84;100.00;101380.28;5076144;28;20031;-54
2022/08/26 01:59:17;;;;;;;8.87;3.50;;;;;;;26.60;100.00;101378.38;5078918;28;20028;-56
2022/08/26 02:01:42;;;;;;;11.17;2.33;;;;;;;26.75;100.00;101386.41;5072090;28;20096;-53
2022/08/26 02:04:32;;;;;;;12.20;2.88;;;;;;;26.74;100.00;101392.19;5075658;28;20035;-53
2022/08/26 02:07:02;;;;;;;6.60;2.60;;;;;;;26.56;100.00;101382.81;5071946;28;20057;-55
2022/08/26 02:09:28;;;;;;;6.80;2.43;;;;;;;26.63;100.00;101384.06;5075545;28;20050;-53
2022/08/26 02:11:54;;;;;;;6.45;2.03;;;;;;;26.67;100.00;101370.59;5074204;28;20040;-53
2022/08/26 02:14:25;;;;;;;9.90;2.57;;;;;;;26.56;100.00;101366.34;5076183;28;20024;-51
2022/08/26 02:16:51;;;;;;;7.40;2.73;;;;;;;26.63;100.00;101361.34;5074309;28;20021;-55
2022/08/26 02:19:22;;;;;;;6.70;2.70;;;;;;;26.44;100.00;101359.34;5075816;28;20032;-53
2022/08/26 02:21:50;;;;;;;8.40;2.10;;;;;;;26.10;100.00;101370.34;5073027;28;20047;-53
2022/08/26 02:24:25;;;;;;;20.77;2.87;;;;;;;26.14;100.00;101364.00;5075880;28;20029;-53
2022/08/26 02:26:51;;;;;;;8.10;2.20;;;;;;;26.36;100.00;101365.47;5073923;28;20041;-52
2022/08/26 02:29:34;;;;;;;7.93;2.80;;;;;;;26.27;100.00;101365.28;5076618;28;20068;-54
2022/08/26 02:31:59;;;;;;;7.87;2.57;;;;;;;26.30;100.00;101366.63;5077433;28;20100;-52
2022/08/26 02:34:28;;;;;;;8.07;2.08;;;;;;;26.26;100.00;101360.06;5074349;28;20036;-55
2022/08/26 02:36:59;;;;;;;6.20;2.27;;;;;;;26.18;100.00;101356.88;5076742;28;20033;-55
2022/08/26 02:39:26;;;;;;;7.10;2.00;;;;;;;26.18;100.00;101361.50;5073249;28;20039;-52
2022/08/26 02:41:52;;;;;;;6.33;1.80;;;;;;;25.91;100.00;101371.88;5071856;28;20052;-55
2022/08/26 02:44:18;;;;;;;8.63;2.33;;;;;;;25.88;100.00;101383.41;5076293;28;20029;-53
2022/08/26 02:46:44;;;;;;;6.73;2.00;;;;;;;25.91;100.00;101384.75;5072488;28;20048;-54
2022/08/26 02:49:10;;;;;;;7.40;2.20;;;;;;;25.92;100.00;101384.47;5079296;28;20039;-53
2022/08/26 02:51:37;;;;;;;11.23;2.63;;;;;;;25.52;100.00;101380.13;5072822;28;20072;-55
2022/08/26 02:54:03;;;;;;;7.53;2.10;;;;;;;25.79;100.00;101378.81;5075455;28;20029;-53
2022/08/26 02:56:32;;;;;;;8.47;2.20;;;;;;;25.83;100.00;101377.94;5077792;28;20025;-55
2022/08/26 02:58:57;;;;;;;5.83;1.60;;;;;;;25.84;100.00;101376.88;5074699;28;20044;-53
2022/08/26 03:01:28;;;;;;;7.43;2.05;;;;;;;25.98;100.00;101381.69;5077911;28;20093;-55
2022/08/26 03:03:56;;;;;;;10.03;2.00;;;;;;;25.92;100.00;101381.72;5073705;28;20162;-54
2022/08/26 03:06:23;;;;;;;7.80;2.63;;;;;;;25.79;100.00;101384.31;5070939;28;20029;-51
2022/08/26 03:08:49;;;;;;;6.13;1.83;;;;;;;25.50;100.00;101383.13;5076635;28;20029;-54
2022/08/26 03:11:16;;;;;;;9.80;1.97;;;;;;;25.65;100.00;101379.47;5077247;28;20057;-53
2022/08/26 03:13:41;;;;;;;8.77;1.80;;;;;;;25.20;100.00;101373.97;5072908;28;20025;-53
2022/08/26 03:16:07;;;;;;;8.68;1.90;;;;;;;25.16;100.00;101383.84;5075722;28;20039;-52
2022/08/26 03:18:34;;;;;;;10.47;2.57;;;;;;;25.13;100.00;101395.34;5072838;28;20051;-53
2022/08/26 03:21:10;;;;;;;9.70;1.70;;;;;;;24.88;100.00;101386.13;5073351;28;20037;-55
2022/08/26 03:23:37;;;;;;;7.07;1.60;;;;;;;25.17;100.00;101380.00;5077046;28;20033;-53
2022/08/26 03:26:04;;;;;;;4.57;1.50;;;;;;;25.38;100.00;101372.50;5071818;28;20055;-54
2022/08/26 03:28:30;;;;;;;5.00;2.30;;;;;;;25.46;100.00;101371.88;5073797;28;20096;-54
2022/08/26 03:30:56;;;;;;;4.60;1.85;;;;;;;25.60;100.00;101371.28;5072401;28;20063;-55
2022/08/26 03:33:24;;;;;;;9.77;1.80;;;;;;;25.67;100.00;101381.94;5075724;28;20040;-53
2022/08/26 03:35:51;;;;;;;6.93;1.93;;;;;;;25.54;100.00;101373.25;5074215;28;20286;-53
2022/08/26 03:38:22;;;;;;;9.33;1.60;;;;;;;25.51;100.00;101379.28;5074592;28;20043;-53
2022/08/26 03:40:47;;;;;;;7.83;1.93;;;;;;;25.51;100.00;101376.56;5073324;28;20049;-55
2022/08/26 03:43:14;;;;;;;;;;;;;;;25.53;100.00;101373.53;5079829;28;20037;-54
2022/08/26 03:45:40;;;;;;;5.75;2.35;;;;;;;25.47;100.00;101375.47;5076603;28;19912;-54
2022/08/26 03:48:07;;;;;;;10.63;1.67;;;;;;;25.39;100.00;101376.88;5075217;28;20045;-56
2022/08/26 03:50:33;;;;;;;3.80;1.50;;;;;;;25.53;100.00;101379.00;5076444;28;20131;-55
2022/08/26 03:52:59;;;;;;;8.10;1.70;;;;;;;25.19;100.00;101369.59;5071612;28;20041;-57
2022/08/26 03:55:26;;;;;;;5.07;1.60;;;;;;;25.62;100.00;101372.66;5075074;28;20043;-56
2022/08/26 03:57:52;;;;;;;7.00;1.30;;;;;;;25.61;100.00;101379.22;5076665;28;20067;-57
2022/08/26 04:00:19;;;;;;;9.52;2.60;;;;;;;25.39;100.00;101387.81;5070030;28;20040;-55
2022/08/26 04:02:47;;;;;;;9.67;2.37;;;;;;;25.50;100.00;101385.88;5069894;28;20037;-54
2022/08/26 04:05:16;;;;;;;9.80;2.20;;;;;;;25.48;100.00;101386.13;5072791;28;20101;-57
2022/08/26 04:07:42;;;;;;;5.60;1.40;;;;;;;25.46;100.00;101379.28;5073045;28;20096;-54
2022/08/26 04:10:11;;;;;;;3.73;1.40;;;;;;;25.54;100.00;101386.13;5075237;28;20021;-52
2022/08/26 04:12:37;;;;;;;8.37;1.70;;;;;;;25.43;100.00;101388.88;5076398;28;20029;-52
2022/08/26 04:15:11;;;;;;;3.67;1.47;;;;;;;25.41;100.00;101371.13;5082101;28;20184;-55
2022/08/26 04:17:36;;;;;;;7.97;1.97;;;;;;;25.53;100.00;101374.34;5078617;28;20060;-54
2022/08/26 04:20:04;;;;;;;5.43;1.50;;;;;;;25.31;100.00;101369.25;5079763;28;20044;-56
2022/08/26 04:22:30;;;;;;;7.43;2.53;;;;;;;25.35;100.00;101373.06;5078744;28;20037;-56
2022/08/26 04:24:56;;;;;;;10.65;1.98;;;;;;;25.43;100.00;101372.47;5082509;28;20033;-55
2022/08/26 04:27:22;;;;;;;3.90;1.40;;;;;;;25.49;100.00;101370.53;5077226;28;20033;-55
2022/08/26 04:29:48;;;;;;;5.80;1.70;;;;;;;25.25;100.00;101378.59;5079508;28;20037;-53
2022/08/26 04:32:14;;;;;;;8.68;1.95;;;;;;;25.08;100.00;101376.22;5080218;28;20075;-55
2022/08/26 04:34:40;;;;;;;4.40;1.60;;;;;;;25.05;100.00;101372.94;5075230;28;20029;-53
2022/08/26 04:37:07;;;;;;;4.63;1.33;;;;;;;25.04;100.00;101370.50;5073898;28;20045;-50
2022/08/26 04:39:32;;;;;;;;;;;;;;;24.90;100.00;101375.72;5079560;28;20096;-54
2022/08/26 04:41:58;;;;;;;6.87;2.03;;;;;;;25.05;100.00;101378.41;5075219;28;19921;-52
2022/08/26 04:44:26;;;;;;;3.50;1.60;;;;;;;25.14;100.00;101383.28;5074131;28;20033;-50
2022/08/26 04:46:53;;;;;;;5.77;1.60;;;;;;;24.89;100.00;101387.78;5076905;28;20075;-53
2022/08/26 04:49:19;;;;;;;6.20;1.80;;;;;;;25.22;100.00;101396.41;5078040;28;20025;-54
2022/08/26 04:51:47;;;;;;;4.87;1.53;;;;;;;25.41;100.00;101385.63;5080911;28;20055;-53
2022/08/26 04:54:14;;;;;;;13.77;2.17;;;;;;;25.44;100.00;101389.72;5076795;28;20032;-55
2022/08/26 04:56:43;;;;;;;7.97;2.40;;;;;;;25.32;100.00;101387.31;5075561;28;20035;-56
2022/08/26 04:59:14;;;;;;;5.80;1.63;;;;;;;25.33;100.00;101395.22;5076735;28;20033;-56
2022/08/26 05:01:51;;;;;;;7.87;2.00;;;;;;;25.41;100.00;101402.03;5077971;28;20125;-55
2022/08/26 05:04:18;;;;;;;8.43;2.33;;;;;;;25.15;100.00;101404.09;5076195;28;20028;-56
2022/08/26 05:06:46;;;;;;;8.00;2.20;;;;;;;25.67;100.00;101407.38;5080609;28;20100;-57
2022/08/26 05:09:13;;;;;;;2.60;1.40;;;;;;;25.45;100.00;101402.31;5079391;28;20063;-58
2022/08/26 05:11:39;;;;;;;9.07;2.10;;;;;;;25.55;100.00;101405.00;5080770;28;20039;-55
2022/08/26 05:14:05;;;;;;;10.15;2.15;;;;;;;25.49;100.00;101408.88;5079859;28;20053;-51
2022/08/26 05:16:31;;;;;;;5.80;1.50;;;;;;;25.51;100.00;101411.34;5075337;28;20033;-53
2022/08/26 05:18:57;;;;;;;4.00;1.40;;;;;;;25.46;100.00;101409.41;5074085;28;20044;-54
2022/08/26 05:21:26;;;;;;;7.00;1.70;;;;;;;25.29;100.00;101410.59;5072870;28;20052;-51
2022/08/26 05:23:53;;;;;;;8.57;2.23;;;;;;;25.26;100.00;101419.38;5072632;28;20045;-51
2022/08/26 05:26:21;;;;;;;8.47;1.27;;;;;;;25.29;100.00;101409.78;5078010;28;20033;-53
2022/08/26 05:28:47;;;;;;;4.03;1.60;;;;;;;25.38;100.00;101415.50;5074395;28;20044;-53
2022/08/26 05:31:17;;;;;;;9.60;1.95;;;;;;;25.21;100.00;101419.41;5073405;28;20041;-52
2022/08/26 05:33:43;;;;;;;4.27;1.57;;;;;;;25.32;100.00;101414.69;5076695;28;20100;-55
2022/08/26 05:36:15;;;;;;;5.73;1.40;;;;;;;25.06;100.00;101418.34;5079795;28;20029;-55
2022/08/26 05:38:41;;;;;;;7.40;1.37;;;;;;;25.12;100.00;101415.59;5078307;28;20049;-59
2022/08/26 05:41:27;;;;;;;4.68;1.40;;;;;;;25.14;100.00;101419.69;5078921;28;20077;-55
2022/08/26 05:43:55;;;;;;;5.97;1.42;;;;;;;25.35;100.00;101420.41;5077471;28;20045;-54
2022/08/26 05:46:21;;;;;;;7.47;1.47;;;;;;;25.57;100.00;101416.47;5078114;28;20043;-53
2022/08/26 05:48:46;;;;;;;8.50;1.17;;;;;;;25.34;100.00;101416.03;5076666;28;20056;-53
2022/08/26 05:51:12;;;;;;;5.80;1.45;;;;;;;25.56;100.00;101414.84;5077205;28;20126;-54
2022/08/26 05:53:39;;;;;;;;;;;;;;;25.45;100.00;101416.78;5077613;28;20033;-55
2022/08/26 05:56:07;;;;;;;3.50;1.00;;;;;;;25.62;100.00;101419.22;5072361;28;19923;-54
2022/08/26 05:58:34;;;;;;;5.03;1.03;;;;;;;25.45;100.00;101429.69;5072304;28;20033;-54
2022/08/26 06:01:04;;;;;;;4.07;1.20;;;;;;;25.18;100.00;101425.44;5072395;28;20116;-55
2022/08/26 06:03:32;;;;;;;4.03;1.53;;;;;;;25.79;100.00;101434.41;5075013;28;20047;-55
2022/08/26 06:06:03;;;;;;;6.33;1.67;;;;;;;25.87;100.00;101433.00;5074756;28;20097;-50
2022/08/26 06:08:29;;;;;;;2.70;1.13;;;;;;;25.84;100.00;101433.56;5074540;28;20047;-53
2022/08/26 06:10:59;;;;;;;5.65;1.45;;;;;;;25.89;100.00;101439.00;5074487;28;20037;-53
2022/08/26 06:13:26;;;;;;;7.93;1.23;;;;;;;26.29;100.00;101434.34;5074543;28;20044;-51
2022/08/26 06:15:54;;;;;;;7.53;1.00;;;;;;;26.17;100.00;101440.19;5075568;28;20051;-55
2022/08/26 06:18:22;;;;;;;8.73;1.43;;;;;;;26.09;100.00;101443.53;5077876;28;20020;-55
2022/08/26 06:20:49;;;;;;;2.33;0.90;;;;;;;26.22;100.00;101444.00;5077641;28;20024;-55
2022/08/26 06:26:03;;;;;;;3.67;1.05;;;;;;;26.27;100.00;101455.75;5074818;28;20058;-55
2022/08/26 06:28:29;;;;;;;5.23;1.00;;;;;;;26.17;100.00;101466.78;5073902;28;20083;-53
2022/08/26 06:30:54;;;;;;;;;;;;;;;25.96;100.00;101450.47;5074544;28;20088;-52
2022/08/26 06:33:21;;;;;;;3.00;0.97;;;;;;;26.17;100.00;101461.28;5074840;28;19920;-55
2022/08/26 06:35:47;;;;;;;4.33;0.97;;;;;;;26.21;100.00;101467.84;5071741;28;20045;-54
2022/08/26 06:38:13;;;;;;;8.27;1.37;;;;;;;26.29;100.00;101464.50;5070597;28;20033;-55
2022/08/26 06:40:44;;;;;;;4.55;0.95;;;;;;;26.39;100.00;101466.31;5069359;28;20074;-56
2022/08/26 06:43:11;;;;;;;7.50;1.30;;;;;;;26.43;100.00;101470.13;5074852;28;20044;-54
2022/08/26 06:45:38;;;;;;;3.83;1.10;;;;;;;26.49;100.00;101468.16;5072555;28;20025;-57
2022/08/26 06:48:05;;;;;;;3.60;1.00;;;;;;;26.29;100.00;101478.19;5076441;28;20047;-57
2022/08/26 06:50:31;;;;;;;6.50;1.43;;;;;;;26.28;100.00;101483.94;5076672;28;20033;-52
2022/08/26 06:52:57;;;;;;;;;;;;;;;26.30;100.00;101476.28;5073870;28;20041;-57
2022/08/26 06:55:22;;;;;;;6.33;1.63;;;;;;;26.20;100.00;101483.47;5073328;28;19985;-53
2022/08/26 06:57:48;;;;;;;4.95;1.17;;;;;;;26.24;100.00;101485.63;5071534;28;20052;-55
2022/08/26 07:00:14;;;;;;;10.88;2.10;;;;;;;25.81;100.00;101489.72;5077076;28;20044;-57
2022/08/26 07:02:40;;;;;;;3.63;0.93;;;;;;;26.00;100.00;101489.91;5071283;28;20045;-54
2022/08/26 07:05:06;;;;;;;4.95;1.00;;;;;;;26.25;100.00;101498.25;5072498;28;20036;-55
2022/08/26 07:07:31;;;;;;;7.33;1.07;;;;;;;26.53;100.00;101490.34;5075379;28;20048;-56
2022/08/26 07:09:57;;;;;;;10.70;1.50;;;;;;;26.60;100.00;101497.09;5072155;28;20033;-55
2022/08/26 07:12:22;;;;;;;2.78;0.95;;;;;;;26.56;100.00;101498.78;5069367;28;20045;-54
2022/08/26 07:14:48;;;;;;;3.65;1.25;;;;;;;26.49;100.00;101501.06;5069067;28;20040;-55
2022/08/26 07:17:14;;;;;;;5.40;1.30;;;;;;;26.48;100.00;101502.16;5064566;28;20036;-54
2022/08/26 07:19:40;;;;;;;2.03;0.77;;;;;;;26.53;100.00;101491.16;5072295;28;20022;-57
2022/08/26 07:22:06;;;;;;;4.72;1.15;;;;;;;26.45;100.00;101495.31;5071840;28;20071;-53
2022/08/26 07:24:33;;;;;;;;;;;;;;;26.56;100.00;101507.03;5069468;28;20274;-53
2022/08/26 07:27:01;;;;;;;3.85;0.85;;;;;;;26.11;100.00;101504.34;5073416;28;19916;-55
2022/08/26 07:29:28;;;;;;;6.43;1.37;;;;;;;26.45;100.00;101506.28;5075757;28;20084;-55
2022/08/26 07:31:54;;;;;;;6.13;1.97;;;;;;;26.86;100.00;101507.84;5074969;28;20059;-55
2022/08/26 07:34:21;;;;;;;10.03;1.30;;;;;;;26.84;100.00;101504.56;5073210;28;20088;-56
2022/08/26 07:36:49;;;;;;;4.33;1.40;;;;;;;26.89;100.00;101509.22;5074314;28;20025;-54
2022/08/26 07:39:15;;;;;;;9.77;1.17;;;;;;;27.27;100.00;101514.00;5080279;28;20032;-56
2022/08/26 07:41:41;;;;;;;6.10;1.30;;;;;;;27.53;100.00;101509.06;5077476;28;20105;-55
2022/08/26 07:44:07;;;;;;;10.23;1.63;;;;;;;27.52;100.00;101523.91;5076714;28;20033;-58
2022/08/26 07:46:33;;;;;;;7.30;1.63;;;;;;;27.58;100.00;101513.66;5076250;28;20109;-54
2022/08/26 07:48:59;;;;;;;4.17;1.17;;;;;;;27.88;100.00;101520.66;5076038;28;20033;-55
2022/08/26 07:51:25;;;;;;;;;;;;;;;27.87;100.00;101527.25;5077156;28;20037;-53
2022/08/26 07:53:51;;;;;;;3.07;0.80;;;;;;;27.41;100.00;101522.34;5075251;28;19916;-56
2022/08/26 07:56:17;;;;;;;5.70;0.90;;;;;;;27.43;100.00;101525.63;5075869;28;20062;-55
2022/08/26 07:58:43;;;;;;;;;;;;;;;27.15;100.00;101520.75;5079114;28;20049;-55
2022/08/26 08:01:08;;;;;;;5.70;1.10;;;;;;;27.34;100.00;101518.03;5081437;28;19917;-55
2022/08/26 08:03:34;;;;;;;;;;;;;;;27.44;100.00;101530.81;5081741;28;20083;-56
2022/08/26 08:05:59;;;;;;;2.73;0.80;;;;;;;27.32;100.00;101525.75;5078741;28;19920;-52
2022/08/26 08:08:26;;;;;;;;;;;;;;;27.91;100.00;101516.50;5079321;28;20033;-54
2022/08/26 08:10:51;;;;;;;2.87;1.10;;;;;;;28.24;100.00;101526.75;5079373;28;19923;-56
2022/08/26 08:13:18;;;;;;;;;;;;;;;27.86;100.00;101522.06;5078922;28;20025;-54
2022/08/26 08:15:43;;;;;;;4.63;1.00;;;;;;;27.80;100.00;101526.03;5079706;28;19938;-56
2022/08/26 08:18:09;;;;;;;3.20;0.50;;;;;;;27.45;100.00;101526.97;5081316;28;20033;-54
2022/08/26 08:20:35;;;;;;;;;;;;;;;26.42;100.00;101523.31;5082844;28;20064;-56
2022/08/26 08:23:03;;;;;;;3.63;0.80;;;;;;;26.59;100.00;101528.38;5076985;28;19913;-55
2022/08/26 08:25:30;;;;;;;4.43;0.83;;;;;;;26.91;100.00;101523.47;5077197;28;20028;-54
2022/08/26 08:27:56;;;;;;;7.00;1.13;;;;;;;26.81;100.00;101527.09;5071930;28;20037;-54
2022/08/26 08:30:22;;;;;;;;;;;;;;;26.81;100.00;101529.84;5072792;28;20109;-55
2022/08/26 08:32:47;;;;;;;5.27;0.90;;;;;;;27.01;100.00;101530.78;5073810;28;19919;-55
2022/08/26 08:35:16;;;;;;;6.47;1.33;;;;;;;27.15;100.00;101533.63;5075198;28;20063;-55
2022/08/26 08:37:43;;;;;;;4.60;0.97;;;;;;;26.96;100.00;101539.06;5070782;28;20045;-55
2022/08/26 08:40:14;;;;;;;7.67;0.83;;;;;;;26.99;100.00;101538.47;5076856;28;20037;-56
2022/08/26 08:42:50;;;;;;;6.40;0.67;;;;;;;26.78;100.00;101541.38;5078845;28;20040;-56
2022/08/26 08:45:24;;;;;;;5.80;1.20;;;;;;;26.88;100.00;101541.34;5078552;28;20100;-56
2022/08/26 08:47:55;;;;;;;6.37;1.50;;;;;;;26.86;100.00;101540.78;5075677;28;20033;-52
2022/08/26 08:50:38;;;;;;;5.47;1.40;;;;;;;26.97;100.00;101549.72;5078782;28;20033;-54
2022/08/26 08:53:15;;;;;;;12.20;1.57;;;;;;;27.08;100.00;101555.13;5075798;28;20016;-54
2022/08/26 08:56:01;;;;;;;7.03;1.17;;;;;;;26.68;100.00;101547.78;5072354;28;20040;-57
2022/08/26 08:59:03;;;;;;;8.10;0.93;;;;;;;26.41;100.00;101543.63;5069640;28;20020;-52
2022/08/26 09:01:50;;;;;;;6.47;1.23;;;;;;;26.53;100.00;101543.25;5070732;28;20033;-53
2022/08/26 09:04:24;;;;;;;5.43;0.90;;;;;;;26.88;100.00;101546.00;5071674;28;20025;-57
2022/08/26 09:06:54;;;;;;;7.53;1.53;;;;;;;26.43;100.00;101546.91;5071664;28;20044;-57
2022/08/26 09:09:37;;;;;;;4.60;0.90;;;;;;;26.68;100.00;101544.25;5072751;28;20116;-56
2022/08/26 09:12:11;;;;;;;4.77;1.17;;;;;;;27.14;100.00;101549.31;5065433;28;20033;-56
2022/08/26 09:14:37;;;;;;;14.27;2.90;;;;;;;26.97;100.00;101544.25;5074729;28;20037;-56
2022/08/26 09:17:21;;;;;;;;;;;;;;;27.04;100.00;101543.91;5082167;28;20076;-54
2022/08/26 09:19:53;;;;;;;16.40;2.00;;;;;;;26.34;100.00;101543.94;5079365;28;19940;-56
2022/08/26 09:22:30;;;;;;;3.47;1.37;;;;;;;26.89;100.00;101547.63;5076132;28;20047;-55
2022/08/26 09:24:56;;;;;;;5.43;1.10;;;;;;;26.99;100.00;101552.19;5078201;28;20036;-56
2022/08/26 09:27:36;;;;;;;;;;;;;;;26.76;100.00;101547.19;5073671;28;20024;-56
2022/08/26 09:30:04;;;;;;;2.47;0.60;;;;;;;26.81;100.00;101556.47;5072778;28;19912;-55
2022/08/26 09:32:30;;;;;;;4.43;1.10;;;;;;;26.91;100.00;101554.47;5074519;28;20037;-56
2022/08/26 09:34:59;;;;;;;3.20;0.90;;;;;;;27.28;100.00;101549.41;5073506;28;20036;-55
2022/08/26 09:37:35;;;;;;;7.60;1.80;;;;;;;27.50;100.00;101556.31;5072880;28;20036;-52
2022/08/26 09:40:28;;;;;;;5.30;1.60;;;;;;;27.32;100.00;101560.63;5068786;28;20044;-54
2022/08/26 09:43:16;;;;;;;3.80;1.07;;;;;;;27.02;100.00;101555.19;5074015;28;20037;-57
2022/08/26 09:45:48;;;;;;;5.33;1.43;;;;;;;27.09;100.00;101556.78;5074821;28;20044;-56
2022/08/26 09:48:33;;;;;;;7.10;1.10;;;;;;;27.08;100.00;101550.44;5076682;28;20055;-54
2022/08/26 09:51:27;;;;;;;4.15;0.98;;;;;;;27.39;100.00;101560.28;5077742;28;20037;-54
2022/08/26 09:53:59;;;;;;;5.20;1.00;;;;;;;27.31;100.00;101556.25;5079168;28;20033;-54
2022/08/26 09:56:32;;;;;;;4.27;1.20;;;;;;;27.26;100.00;101557.13;5075222;28;20037;-53
2022/08/26 09:59:00;;;;;;;4.53;1.00;;;;;;;27.18;100.00;101563.25;5072459;28;20033;-54
2022/08/26 10:01:34;;;;;;;4.20;1.37;;;;;;;27.38;100.00;101559.47;5077478;28;20037;-57
2022/08/26 10:04:19;;;;;;;6.53;1.30;;;;;;;27.32;100.00;101553.22;5074999;28;20124;-56
2022/08/26 10:06:57;;;;;;;7.27;1.63;;;;;;;27.52;100.00;101558.78;5067591;28;20092;-52
2022/08/26 10:09:25;;;;;;;5.43;1.13;;;;;;;27.47;100.00;101556.91;5069532;28;20124;-57
2022/08/26 10:12:01;;;;;;;5.87;1.13;;;;;;;27.19;100.00;101560.22;5070563;28;20032;-56
2022/08/26 10:14:32;;;;;;;4.25;1.05;;;;;;;26.76;100.00;101555.41;5067699;28;20037;-55
2022/08/26 10:17:25;;;;;;;3.37;0.90;;;;;;;27.17;100.00;101564.34;5071261;28;20112;-57
2022/08/26 10:20:01;;;;;;;6.27;1.60;;;;;;;26.70;100.00;101558.50;5067372;28;20048;-55
2022/08/26 10:22:41;;;;;;;5.53;1.40;;;;;;;26.83;100.00;101560.53;5067924;28;20084;-57
2022/08/26 10:25:12;;;;;;;26.03;13.47;;;;;;;27.18;100.00;101560.50;5072868;28;20063;-54
2022/08/26 10:27:45;;;;;;;8.03;1.30;;;;;;;26.89;100.00;101556.69;5070417;28;20057;-56
2022/08/26 10:30:14;;;;;;;4.57;1.10;;;;;;;27.03;100.00;101559.56;5077527;28;20045;-52
2022/08/26 10:32:46;;;;;;;7.93;1.10;;;;;;;26.86;100.00;101548.22;5076675;28;20030;-57
2022/08/26 10:35:14;;;;;;;9.47;1.50;;;;;;;27.25;100.00;101560.16;5077063;28;20071;-63
2022/08/26 10:37:54;;;;;;;9.40;1.77;;;;;;;27.40;100.00;101556.41;5077024;28;20025;-54
2022/08/26 10:40:29;;;;;;;4.40;1.30;;;;;;;27.44;100.00;101557.47;5080457;28;20090;-56
2022/08/26 10:43:02;;;;;;;9.40;2.13;;;;;;;27.59;100.00;101560.06;5071028;28;20037;-56
2022/08/26 10:45:31;;;;;;;4.40;1.53;;;;;;;27.73;100.00;101557.41;5069091;28;20033;-54
2022/08/26 10:48:11;;;;;;;43.93;21.67;;;;;;;27.55;100.00;101559.00;5067638;28;20025;-56
2022/08/26 10:50:42;;;;;;;18.47;7.13;;;;;;;27.75;100.00;101560.66;5067000;28;20055;-52
2022/08/26 10:53:16;;;;;;;17.47;8.73;;;;;;;27.72;100.00;101557.72;5067180;28;20030;-51
2022/08/26 10:55:55;;;;;;;11.33;5.93;;;;;;;27.43;100.00;101564.06;5069526;28;20041;-54
2022/08/26 10:58:50;;;;;;;14.67;5.27;;;;;;;27.58;100.00;101563.91;5066057;28;20028;-53
2022/08/26 11:01:42;;;;;;;10.47;3.33;;;;;;;27.51;100.00;101559.84;5068396;28;20032;-54
2022/08/26 11:04:22;;;;;;;8.70;2.03;;;;;;;27.36;100.00;101563.59;5072378;28;20029;-56
2022/08/26 11:06:48;;;;;;;8.03;1.57;;;;;;;27.40;100.00;101568.22;5071398;28;20036;-56
2022/08/26 11:09:44;;;;;;;5.37;1.33;;;;;;;27.28;100.00;101559.56;5071078;28;20032;-57
2022/08/26 11:12:35;;;;;;;6.60;1.10;;;;;;;27.53;100.00;101569.47;5069463;28;20056;-52
2022/08/26 11:15:05;;;;;;;4.77;1.30;;;;;;;27.44;100.00;101557.47;5072485;28;20059;-54
2022/08/26 11:17:43;;;;;;;27.33;11.57;;;;;;;27.50;100.00;101570.03;5065515;28;20546;-58
2022/08/26 11:20:32;;;;;;;35.27;19.57;;;;;;;27.20;100.00;101563.78;5069868;28;20032;-55
2022/08/26 11:23:13;;;;;;;9.27;4.43;;;;;;;27.39;100.00;101563.03;5072738;28;20067;-58
2022/08/26 11:25:54;;;;;;;10.23;4.93;;;;;;;27.69;100.00;101566.56;5074966;28;20097;-56
2022/08/26 11:28:44;;;;;;;7.47;2.43;;;;;;;27.66;100.00;101562.44;5072899;28;20071;-56
2022/08/26 11:31:25;;;;;;;37.37;18.63;;;;;;;27.62;100.00;101564.97;5070906;28;20036;-56
2022/08/26 11:34:02;;;;;;;28.60;16.33;;;;;;;27.13;100.00;101566.06;5074663;28;20032;-56
2022/08/26 11:36:38;;;;;;;21.47;11.90;;;;;;;27.52;100.00;101562.34;5072880;28;20032;-54
2022/08/26 11:39:16;;;;;;;24.42;13.00;;;;;;;27.79;100.00;101569.16;5072849;28;20079;-57
2022/08/26 11:41:43;;;;;;;7.70;4.07;;;;;;;27.98;100.00;101566.41;5071251;28;20045;-56
2022/08/26 11:44:09;;;;;;;21.97;10.20;;;;;;;28.37;100.00;101571.94;5076706;28;20052;-54
2022/08/26 11:46:36;;;;;;;30.23;18.60;;;;;;;28.37;100.00;101569.97;5074062;28;20038;-55
2022/08/26 11:49:06;;;;;;;54.63;32.97;;;;;;;28.65;100.00;101564.59;5075991;28;20029;-56
2022/08/26 11:51:34;;;;;;;14.37;8.77;;;;;;;28.65;100.00;101566.53;5075108;28;20035;-52
2022/08/26 11:54:13;;;;;;;12.07;5.27;;;;;;;28.95;100.00;101569.88;5071839;28;20057;-56